Time;durP1;ratioP1;P1;durP2;ratioP2;P2;SDS_P1;SDS_P2;PMS_P1;PMS_P2;Temp;Humidity;BMP_temperature;BMP_pressure;BME280_temperature;BME280_humidity;BME280_pressure;Samples;Min_cycle;Max_cycle;Signal;HPM_P1;HPM_P2
2023/08/10 10:34:53;;;;;;;4.95;1.40;;;16.00;45.90;;;;;;5078679;28;20117;-83
2023/08/10 10:37:32;;;;;;;3.50;1.50;;;16.00;45.90;;;;;;5111950;28;20055;-79
2023/08/10 10:40:18;;;;;;;3.20;1.25;;;15.90;46.30;;;;;;5095109;28;20035;-81
2023/08/10 10:43:04;;;;;;;3.35;1.10;;;15.90;46.40;;;;;;5113086;28;20488;-80
2023/08/10 10:45:37;;;;;;;3.80;1.63;;;15.90;46.30;;;;;;5096184;28;20130;-74
2023/08/10 10:48:05;;;;;;;3.78;1.30;;;15.80;46.70;;;;;;5091577;28;20107;-75
2023/08/10 10:50:33;;;;;;;2.95;1.20;;;15.80;47.10;;;;;;5092989;28;20028;-77
2023/08/10 10:53:05;;;;;;;3.35;1.23;;;15.80;46.50;;;;;;5076186;28;20036;-77
2023/08/10 10:55:35;;;;;;;2.80;1.30;;;15.80;47.00;;;;;;5081895;28;20394;-78
2023/08/10 10:58:08;;;;;;;3.08;1.30;;;15.80;47.80;;;;;;5105220;28;20040;-78
2023/08/10 11:00:36;;;;;;;3.40;1.20;;;15.80;46.80;;;;;;5057086;28;20035;-82
2023/08/10 11:03:08;;;;;;;3.97;1.30;;;15.70;47.20;;;;;;5091048;28;20039;-81
2023/08/10 11:05:36;;;;;;;5.40;1.50;;;15.70;47.70;;;;;;5075395;28;20039;-76
2023/08/10 11:08:03;;;;;;;5.40;1.50;;;15.70;47.60;;;;;;5111210;28;20040;-77
2023/08/10 11:10:31;;;;;;;4.28;1.25;;;15.70;47.90;;;;;;5111144;28;20164;-76
2023/08/10 11:12:59;;;;;;;3.75;1.50;;;15.70;48.10;;;;;;5109253;28;20043;-77
2023/08/10 11:15:26;;;;;;;3.78;1.50;;;15.70;48.50;;;;;;5101232;28;20040;-77
2023/08/10 11:17:54;;;;;;;3.50;1.20;;;15.60;48.50;;;;;;5105419;27;20497;-76
2023/08/10 11:20:22;;;;;;;6.13;1.45;;;15.50;48.50;;;;;;5092767;28;20047;-76
2023/08/10 11:22:49;;;;;;;4.80;1.67;;;15.50;48.70;;;;;;5072398;28;20036;-76
2023/08/10 11:25:24;;;;;;;3.42;1.30;;;15.50;48.90;;;;;;5106769;28;20028;-75
2023/08/10 11:27:53;;;;;;;3.75;1.15;;;15.40;48.90;;;;;;5060511;28;20050;-77
2023/08/10 11:30:21;;;;;;;3.25;1.20;;;15.40;49.20;;;;;;5058943;28;20470;-75
2023/08/10 11:32:50;;;;;;;3.90;1.42;;;15.40;49.10;;;;;;5105175;28;20039;-75
2023/08/10 14:16:05;;;;;;;5.22;1.30;;;14.00;56.20;;;;;;5071847;28;20123;-76
2023/08/10 14:18:33;;;;;;;2.85;1.23;;;13.90;56.60;;;;;;5073500;28;20032;-76
2023/08/10 14:21:00;;;;;;;3.20;1.13;;;13.90;56.50;;;;;;5066361;28;20047;-76
2023/08/10 14:23:27;;;;;;;4.60;1.27;;;13.80;56.30;;;;;;5053153;28;20025;-76
2023/08/10 14:25:54;;;;;;;4.22;1.23;;;13.90;56.30;;;;;;5069502;28;20036;-76
2023/08/10 14:28:21;;;;;;;4.10;1.02;;;13.80;56.50;;;;;;5073854;28;20032;-76
2023/08/10 14:30:49;;;;;;;4.65;1.25;;;13.70;56.70;;;;;;5073369;28;20060;-76
2023/08/10 14:33:16;;;;;;;9.10;1.40;;;13.60;57.00;;;;;;5058297;28;20100;-76
2023/08/10 14:35:43;;;;;;;5.43;1.50;;;13.50;57.40;;;;;;5058785;28;20033;-76
2023/08/10 14:38:10;;;;;;;4.13;1.33;;;13.50;57.60;;;;;;5059578;28;20437;-76
2023/08/10 14:40:38;;;;;;;3.58;1.23;;;13.40;57.90;;;;;;5068246;28;20079;-76
2023/08/10 14:43:05;;;;;;;2.83;1.10;;;13.40;58.30;;;;;;5054304;28;20033;-76
2023/08/10 14:45:32;;;;;;;7.65;1.33;;;13.40;58.50;;;;;;5054103;28;20083;-76
2023/08/10 14:48:00;;;;;;;5.50;1.40;;;13.40;59.00;;;;;;5073790;28;20112;-76
2023/08/10 14:50:28;;;;;;;5.95;1.42;;;13.40;59.20;;;;;;5072227;28;20039;-76
2023/08/10 14:52:55;;;;;;;4.32;1.40;;;13.30;59.70;;;;;;5072654;28;20486;-76
2023/08/10 14:55:22;;;;;;;2.58;1.20;;;13.30;60.50;;;;;;5072717;28;20040;-76
2023/08/10 14:57:50;;;;;;;3.92;1.40;;;13.30;60.20;;;;;;5073029;28;20437;-76
2023/08/10 15:00:18;;;;;;;6.93;1.40;;;13.30;60.30;;;;;;5072222;28;20056;-76
2023/08/10 15:02:46;;;;;;;4.70;1.80;;;13.30;60.30;;;;;;5073188;28;20033;-76
2023/08/10 15:05:17;;;;;;;4.38;1.45;;;13.20;60.30;;;;;;5072532;28;20040;-76
2023/08/10 15:07:44;;;;;;;4.53;1.40;;;13.20;60.20;;;;;;5072639;28;20076;-76
2023/08/10 15:10:12;;;;;;;2.95;1.42;;;13.20;60.10;;;;;;5072369;28;20037;-76
2023/08/10 15:12:39;;;;;;;2.83;1.17;;;13.00;62.40;;;;;;5054909;28;20082;-75
2023/08/10 15:15:08;;;;;;;3.35;1.10;;;13.00;61.40;;;;;;5053039;28;20063;-75
2023/08/10 15:17:39;;;;;;;4.88;1.45;;;12.90;62.30;;;;;;5072954;28;20510;-76
2023/08/10 15:20:08;;;;;;;3.67;1.73;;;12.90;61.40;;;;;;5074036;28;20489;-76
2023/08/10 15:22:36;;;;;;;6.10;1.40;;;13.00;60.70;;;;;;5072837;28;20075;-76
2023/08/10 15:25:06;;;;;;;4.75;1.40;;;13.00;60.10;;;;;;5071843;28;20277;-76
2023/08/10 15:27:33;;;;;;;4.15;1.30;;;13.10;59.50;;;;;;5070130;28;20085;-75
2023/08/10 15:30:01;;;;;;;6.95;1.67;;;13.10;59.10;;;;;;5072469;28;20029;-76
2023/08/10 15:32:28;;;;;;;6.93;1.70;;;13.20;59.00;;;;;;5071666;28;20131;-76
2023/08/10 15:34:55;;;;;;;5.88;1.50;;;13.20;58.80;;;;;;5073010;28;20024;-76
2023/08/10 15:37:23;;;;;;;6.93;1.70;;;13.20;59.00;;;;;;5073053;28;20044;-76
2023/08/10 15:39:51;;;;;;;5.70;1.20;;;13.20;59.80;;;;;;5072018;28;20029;-76
2023/08/10 15:42:18;;;;;;;3.45;1.20;;;13.20;59.60;;;;;;5070604;28;20040;-76
2023/08/10 15:44:47;;;;;;;6.00;1.50;;;13.10;58.80;;;;;;5072485;28;20055;-76
2023/08/10 15:47:14;;;;;;;4.25;1.25;;;13.20;59.50;;;;;;5072920;28;20033;-76
2023/08/10 15:49:41;;;;;;;6.40;1.33;;;13.20;58.90;;;;;;5071757;28;20060;-76
2023/08/10 15:52:08;;;;;;;6.15;1.50;;;13.20;58.80;;;;;;5072952;28;20056;-76
2023/08/10 15:54:36;;;;;;;5.30;1.50;;;13.20;58.70;;;;;;5072845;28;20032;-76
2023/08/10 15:57:03;;;;;;;3.58;1.33;;;13.10;58.50;;;;;;5072606;28;20072;-75
2023/08/10 15:59:30;;;;;;;5.50;1.40;;;13.10;58.70;;;;;;5072788;28;20024;-76
2023/08/10 16:01:58;;;;;;;3.72;1.30;;;13.10;58.80;;;;;;5071121;28;20036;-76
2023/08/10 16:04:25;;;;;;;5.00;1.25;;;13.10;58.50;;;;;;5071692;28;20024;-76
2023/08/10 16:06:54;;;;;;;4.65;1.30;;;13.10;58.70;;;;;;5054871;28;20028;-76
2023/08/10 16:09:24;;;;;;;5.90;1.75;;;13.10;58.80;;;;;;5069830;28;20035;-76
2023/08/10 16:11:51;;;;;;;5.15;1.42;;;13.10;59.30;;;;;;5071580;28;20092;-76
2023/08/10 16:14:19;;;;;;;5.68;1.30;;;13.10;59.10;;;;;;5076358;28;20075;-76
2023/08/10 16:16:49;;;;;;;4.63;1.73;;;13.10;59.40;;;;;;5092395;28;20131;-76
2023/08/10 16:19:17;;;;;;;4.68;1.38;;;13.00;59.70;;;;;;5076798;28;20036;-76
2023/08/10 16:21:47;;;;;;;8.30;1.83;;;13.00;59.40;;;;;;5090345;28;20107;-76
2023/08/10 16:24:15;;;;;;;5.57;1.40;;;13.00;58.90;;;;;;5092463;28;20032;-76
2023/08/10 16:26:42;;;;;;;6.15;1.70;;;12.90;59.00;;;;;;5089552;28;20039;-76
2023/08/10 16:29:09;;;;;;;3.35;1.08;;;12.80;59.40;;;;;;5092817;28;20418;-76
2023/08/10 16:31:36;;;;;;;5.78;1.55;;;12.80;59.60;;;;;;5091364;28;20040;-76
2023/08/10 16:34:05;;;;;;;4.38;1.48;;;12.90;59.30;;;;;;5091092;28;20032;-76
2023/08/10 16:36:33;;;;;;;7.85;1.52;;;12.80;59.80;;;;;;5091292;28;20059;-76
2023/08/10 16:39:01;;;;;;;3.58;1.27;;;12.80;59.50;;;;;;5091066;28;20043;-75
2023/08/10 16:41:28;;;;;;;3.75;1.33;;;12.80;60.40;;;;;;5091549;28;20047;-76
2023/08/10 16:43:55;;;;;;;3.25;1.25;;;12.70;60.30;;;;;;5071840;28;20033;-76
2023/08/10 16:46:22;;;;;;;4.60;1.20;;;12.70;60.10;;;;;;5072234;28;20032;-76
2023/08/10 16:48:50;;;;;;;4.43;1.35;;;12.70;60.10;;;;;;5072156;28;20033;-76
2023/08/10 16:51:17;;;;;;;1.88;1.10;;;12.70;59.60;;;;;;5072261;28;20024;-76
2023/08/10 16:53:45;;;;;;;6.45;1.50;;;12.70;59.70;;;;;;5070704;28;20028;-75
2023/08/10 16:56:12;;;;;;;4.63;1.50;;;12.70;59.90;;;;;;5086743;28;20048;-75
2023/08/10 16:58:39;;;;;;;6.03;1.60;;;12.70;59.80;;;;;;5080593;28;20032;-76
2023/08/10 17:01:09;;;;;;;7.88;1.95;;;12.70;59.70;;;;;;5072252;28;20052;-76
2023/08/10 17:03:37;;;;;;;6.95;1.50;;;12.70;59.90;;;;;;5082712;28;20028;-76
2023/08/10 17:06:04;;;;;;;4.93;1.33;;;12.70;59.90;;;;;;5075692;28;20045;-76
2023/08/10 17:08:32;;;;;;;4.68;1.67;;;12.60;60.20;;;;;;5053504;28;20033;-76
2023/08/10 17:10:59;;;;;;;8.35;1.73;;;12.60;60.40;;;;;;5070622;28;20086;-75
2023/08/10 17:13:27;;;;;;;7.85;1.85;;;12.60;60.30;;;;;;5073398;28;20086;-76
2023/08/10 17:15:55;;;;;;;7.28;1.80;;;12.60;60.50;;;;;;5108390;28;20043;-75
2023/08/10 17:18:22;;;;;;;8.32;1.88;;;12.60;59.60;;;;;;5064968;28;20034;-76
2023/08/10 17:20:49;;;;;;;5.57;1.80;;;12.60;60.50;;;;;;5081305;28;20477;-76
2023/08/10 17:23:17;;;;;;;4.97;2.15;;;12.60;59.90;;;;;;5098570;28;20028;-76
2023/08/10 17:25:44;;;;;;;3.97;1.33;;;12.60;60.10;;;;;;5110211;28;20024;-76
2023/08/10 17:28:11;;;;;;;4.22;1.48;;;12.60;61.10;;;;;;5077390;28;20409;-76
2023/08/10 17:30:38;;;;;;;6.75;1.40;;;12.50;61.00;;;;;;5096833;28;20025;-75
2023/08/10 17:33:06;;;;;;;5.35;1.83;;;12.50;60.90;;;;;;5095850;28;20502;-75
2023/08/10 17:35:33;;;;;;;1.63;1.00;;;12.50;61.10;;;;;;5090750;28;20048;-76
2023/08/10 17:38:00;;;;;;;4.60;1.63;;;12.40;61.70;;;;;;5091993;28;20493;-76
2023/08/10 17:40:27;;;;;;;7.80;1.70;;;12.30;61.70;;;;;;5115475;28;20073;-76
2023/08/10 17:42:55;;;;;;;4.65;1.50;;;12.30;61.80;;;;;;5080814;28;20042;-76
2023/08/10 17:45:22;;;;;;;4.18;1.40;;;12.30;61.70;;;;;;5115274;28;20111;-75
2023/08/10 17:47:49;;;;;;;5.18;1.13;;;12.30;62.20;;;;;;5114705;28;20035;-76
2023/08/10 17:50:16;;;;;;;5.30;1.40;;;12.20;61.70;;;;;;5115887;28;20393;-75
2023/08/10 17:52:44;;;;;;;7.60;1.83;;;12.30;62.10;;;;;;5115756;28;20103;-75
2023/08/10 17:55:11;;;;;;;5.97;1.58;;;12.20;62.00;;;;;;5114866;28;20442;-76
2023/08/10 17:57:38;;;;;;;3.92;1.63;;;12.20;61.90;;;;;;5114883;28;20070;-75
2023/08/10 18:00:16;;;;;;;7.22;1.27;;;12.20;62.30;;;;;;5111505;28;20525;-76
2023/08/10 18:02:44;;;;;;;6.57;1.65;;;12.10;62.50;;;;;;5095071;28;20047;-76
2023/08/10 18:05:11;;;;;;;3.58;1.55;;;12.10;63.00;;;;;;5077361;28;20024;-76
2023/08/10 18:07:39;;;;;;;5.38;1.33;;;12.10;64.20;;;;;;5077016;28;20032;-76
2023/08/10 18:10:06;;;;;;;7.28;2.15;;;12.10;63.60;;;;;;5095025;28;20032;-75
2023/08/10 18:12:33;;;;;;;4.05;1.50;;;12.10;64.40;;;;;;5060698;28;20032;-76
2023/08/10 18:15:01;;;;;;;4.32;1.45;;;12.00;63.50;;;;;;5103266;28;20097;-75
2023/08/10 18:17:28;;;;;;;6.97;1.60;;;12.00;63.30;;;;;;5114895;28;20104;-75
2023/08/10 18:19:55;;;;;;;4.97;1.45;;;12.00;63.90;;;;;;5115483;28;20055;-76
2023/08/10 18:22:22;;;;;;;6.75;1.38;;;12.00;64.40;;;;;;5109879;28;20508;-76
2023/08/10 18:24:50;;;;;;;4.07;1.30;;;12.00;64.60;;;;;;5093165;28;20043;-75
2023/08/10 18:27:17;;;;;;;7.00;1.98;;;12.00;64.40;;;;;;5077510;28;20480;-75
2023/08/10 18:29:44;;;;;;;7.45;2.13;;;12.00;64.50;;;;;;5094568;28;20032;-76
2023/08/10 18:32:12;;;;;;;11.90;2.00;;;11.90;64.20;;;;;;5094844;28;20115;-76
2023/08/10 18:34:39;;;;;;;2.30;1.38;;;11.90;64.60;;;;;;5098236;28;20036;-76
2023/08/10 18:37:06;;;;;;;8.55;1.50;;;11.80;64.40;;;;;;5096810;28;20378;-76
2023/08/10 18:39:35;;;;;;;5.95;1.67;;;11.80;65.10;;;;;;5076640;28;20398;-76
2023/08/10 18:42:03;;;;;;;6.70;1.40;;;11.80;64.80;;;;;;5095751;28;20111;-76
2023/08/10 18:44:30;;;;;;;11.15;1.50;;;11.80;65.10;;;;;;5095404;28;20034;-77
2023/08/10 18:46:57;;;;;;;7.38;1.60;;;11.80;65.00;;;;;;5087186;28;20066;-77
2023/08/10 18:49:25;;;;;;;5.35;1.70;;;11.70;65.50;;;;;;5096008;28;20493;-76
2023/08/10 18:51:52;;;;;;;6.82;2.00;;;11.70;66.30;;;;;;5107408;28;20342;-76
2023/08/10 18:54:19;;;;;;;8.13;1.67;;;11.70;66.40;;;;;;5101368;28;20505;-76
2023/08/10 18:56:46;;;;;;;8.20;1.70;;;11.70;66.30;;;;;;5112184;28;20584;-76
2023/08/10 18:59:14;;;;;;;5.88;1.30;;;11.60;66.40;;;;;;5114083;28;20031;-76
2023/08/10 19:01:41;;;;;;;5.07;1.67;;;11.60;66.30;;;;;;5113941;28;20402;-76
2023/08/10 19:04:08;;;;;;;4.40;1.45;;;11.60;66.00;;;;;;5085012;28;20035;-76
2023/08/10 19:06:35;;;;;;;6.40;1.75;;;11.50;66.10;;;;;;5109010;28;20054;-76
2023/08/10 19:09:02;;;;;;;11.85;1.70;;;11.50;66.10;;;;;;5078035;28;20036;-76
2023/08/10 19:11:30;;;;;;;4.13;1.55;;;11.50;66.10;;;;;;5098718;28;20031;-76
2023/08/10 19:13:57;;;;;;;5.25;1.38;;;11.50;66.40;;;;;;5104056;28;20039;-76
2023/08/10 19:16:24;;;;;;;7.28;1.65;;;11.50;67.20;;;;;;5112784;28;20043;-75
2023/08/10 19:18:51;;;;;;;9.88;1.40;;;11.50;67.40;;;;;;5112851;28;20036;-76
2023/08/10 19:21:19;;;;;;;3.90;1.52;;;11.40;67.30;;;;;;5096084;28;20051;-76
2023/08/10 19:23:46;;;;;;;8.40;1.88;;;11.40;66.70;;;;;;5096135;28;20028;-75
2023/08/10 19:26:13;;;;;;;4.05;1.67;;;11.40;66.30;;;;;;5080352;28;20090;-76
2023/08/10 19:28:41;;;;;;;6.20;1.52;;;11.40;66.60;;;;;;5041241;28;20111;-78
2023/08/10 19:31:08;;;;;;;8.88;2.08;;;11.40;66.20;;;;;;5100790;28;20064;-76
2023/08/10 19:33:35;;;;;;;6.32;2.08;;;11.30;66.40;;;;;;5093127;28;20033;-75
2023/08/10 19:36:03;;;;;;;8.40;1.83;;;11.30;66.20;;;;;;5096588;28;20047;-76
2023/08/10 19:38:32;;;;;;;4.88;1.27;;;11.30;66.10;;;;;;5092570;28;20062;-75
2023/08/10 19:40:59;;;;;;;6.97;1.40;;;11.30;66.20;;;;;;5094847;28;20034;-75
2023/08/10 19:43:26;;;;;;;9.18;2.67;;;11.30;65.90;;;;;;5113262;28;20511;-76
2023/08/10 19:45:53;;;;;;;8.82;1.83;;;11.30;66.10;;;;;;5112875;28;20039;-75
2023/08/10 19:48:21;;;;;;;4.47;1.52;;;11.30;67.60;;;;;;5095026;28;20024;-75
2023/08/10 19:50:48;;;;;;;6.80;1.85;;;11.30;68.10;;;;;;5090324;28;20127;-75
2023/08/10 19:53:16;;;;;;;5.68;1.63;;;11.20;68.80;;;;;;5110698;28;20031;-75
2023/08/10 19:55:43;;;;;;;6.05;2.22;;;11.20;69.50;;;;;;5073940;28;20028;-75
2023/08/10 19:58:11;;;;;;;3.67;1.30;;;11.10;69.40;;;;;;5074378;28;20085;-75
2023/08/10 20:00:40;;;;;;;7.30;1.80;;;11.10;69.50;;;;;;5092581;28;20032;-75
2023/08/10 20:03:07;;;;;;;6.40;1.80;;;11.00;69.20;;;;;;5074606;28;20035;-75
2023/08/10 20:05:36;;;;;;;4.03;1.50;;;11.10;68.80;;;;;;5097913;28;20040;-75
2023/08/10 20:08:04;;;;;;;4.97;1.40;;;11.10;67.70;;;;;;5112540;28;20027;-75
2023/08/10 20:10:33;;;;;;;4.93;1.52;;;11.10;68.40;;;;;;5100856;28;20039;-75
2023/08/10 20:13:01;;;;;;;5.63;1.77;;;11.10;67.60;;;;;;5112238;28;20035;-75
2023/08/10 20:15:28;;;;;;;5.05;1.73;;;11.10;67.10;;;;;;5113059;28;20039;-75
2023/08/10 20:18:00;;;;;;;8.25;1.85;;;11.10;67.60;;;;;;5102959;28;20063;-75
2023/08/10 20:20:27;;;;;;;6.68;2.10;;;11.20;67.50;;;;;;5093164;28;20040;-75
2023/08/10 20:22:57;;;;;;;7.57;1.55;;;11.10;68.40;;;;;;5058011;28;20075;-75
2023/08/10 20:25:25;;;;;;;6.53;1.60;;;11.00;68.50;;;;;;5092755;28;20032;-75
2023/08/10 20:27:57;;;;;;;6.70;1.73;;;11.00;68.20;;;;;;5080818;28;20043;-75
2023/08/10 20:30:24;;;;;;;8.93;1.80;;;11.00;68.30;;;;;;5111769;28;20043;-75
2023/08/10 20:32:51;;;;;;;7.97;2.00;;;10.90;68.80;;;;;;5112775;28;20386;-75
2023/08/10 20:35:19;;;;;;;5.93;1.73;;;10.90;68.90;;;;;;5082356;28;20039;-74
2023/08/10 20:37:46;;;;;;;9.18;1.88;;;10.90;69.00;;;;;;5091965;28;20035;-76
2023/08/10 20:40:13;;;;;;;6.97;2.05;;;10.90;69.10;;;;;;5110442;28;20385;-75
2023/08/10 20:42:40;;;;;;;6.32;1.85;;;10.90;69.40;;;;;;5091001;28;20490;-75
2023/08/10 20:45:08;;;;;;;4.75;1.92;;;10.90;69.10;;;;;;5090681;28;20044;-75
2023/08/10 20:47:36;;;;;;;7.70;2.00;;;10.90;69.70;;;;;;5092264;28;20111;-75
2023/08/10 20:50:05;;;;;;;6.28;2.10;;;10.90;69.40;;;;;;5111635;28;20439;-75
2023/08/10 20:52:33;;;;;;;8.18;1.98;;;10.90;69.60;;;;;;5115119;28;20554;-73
2023/08/10 20:55:00;;;;;;;5.15;1.75;;;10.80;70.60;;;;;;5116576;27;20039;-75
2023/08/10 20:57:28;;;;;;;5.38;2.00;;;10.80;70.90;;;;;;5137144;27;20031;-75
2023/08/10 20:59:55;;;;;;;7.85;2.22;;;10.70;70.70;;;;;;5078878;28;20032;-75
2023/08/10 21:02:23;;;;;;;7.85;1.77;;;10.70;70.80;;;;;;5096798;28;20060;-75
2023/08/10 21:04:51;;;;;;;7.28;2.00;;;10.80;71.40;;;;;;5098126;28;20062;-73
2023/08/10 21:07:19;;;;;;;8.13;1.63;;;10.80;69.70;;;;;;5081758;28;20028;-72
2023/08/10 21:09:46;;;;;;;6.60;1.55;;;10.90;69.00;;;;;;5116345;28;20039;-72
2023/08/10 21:12:14;;;;;;;10.00;1.42;;;10.90;68.70;;;;;;5116190;28;20501;-73
2023/08/10 21:14:41;;;;;;;5.68;1.83;;;11.00;68.20;;;;;;5115378;28;20081;-73
2023/08/10 21:17:08;;;;;;;8.75;1.70;;;11.00;68.20;;;;;;5115450;28;20039;-73
2023/08/10 21:19:35;;;;;;;6.00;1.50;;;11.10;68.40;;;;;;5115888;28;20028;-74
2023/08/10 21:22:03;;;;;;;4.53;1.58;;;11.10;68.00;;;;;;5115984;28;20032;-72
2023/08/10 21:24:30;;;;;;;6.15;1.50;;;11.10;67.90;;;;;;5098054;28;20414;-72
2023/08/10 21:26:57;;;;;;;4.78;1.45;;;11.10;68.40;;;;;;5095872;28;20085;-74
2023/08/10 21:29:24;;;;;;;5.20;1.70;;;11.10;68.60;;;;;;5095300;28;20028;-72
2023/08/10 21:31:52;;;;;;;7.35;1.50;;;11.10;68.40;;;;;;5097385;28;20490;-73
2023/08/10 21:34:19;;;;;;;8.10;2.25;;;11.20;68.40;;;;;;5096633;28;20039;-72
2023/08/10 21:36:46;;;;;;;5.63;1.63;;;11.20;68.00;;;;;;5095227;28;20043;-73
2023/08/10 21:39:13;;;;;;;6.22;1.60;;;11.20;68.20;;;;;;5060497;28;20039;-72
2023/08/10 21:41:40;;;;;;;7.10;1.52;;;11.20;68.10;;;;;;5107287;28;20039;-73
2023/08/10 21:44:08;;;;;;;10.18;1.92;;;11.20;68.00;;;;;;5115688;28;20027;-72
2023/08/10 21:46:35;;;;;;;4.90;1.48;;;11.30;68.40;;;;;;5112362;28;20400;-73
2023/08/10 21:49:03;;;;;;;4.97;1.45;;;11.30;68.40;;;;;;5114981;28;20036;-73
2023/08/10 21:51:30;;;;;;;7.47;1.48;;;11.40;67.70;;;;;;5097655;28;20071;-72
2023/08/10 21:53:58;;;;;;;4.22;1.70;;;11.50;67.70;;;;;;5115654;28;20027;-72
2023/08/10 21:56:25;;;;;;;7.35;2.03;;;11.50;68.00;;;;;;5063672;28;20498;-73
2023/08/10 21:58:52;;;;;;;18.02;2.38;;;11.60;68.60;;;;;;5080511;28;20040;-73
2023/08/10 22:01:19;;;;;;;10.38;1.98;;;11.60;68.40;;;;;;5096636;28;20111;-72
